createdAt,value
2019-03-19T00:01:02.596Z,6.17
2019-03-19T00:04:09.339Z,3.07
2019-03-19T00:07:16.869Z,11.13
2019-03-19T00:10:23.641Z,11.63
2019-03-19T00:13:31.583Z,8.10
2019-03-19T00:16:39.016Z,7.40
2019-03-19T00:19:45.523Z,7.93
2019-03-19T00:22:52.156Z,6.87
2019-03-19T00:25:59.882Z,8.33
2019-03-19T00:29:06.363Z,4.00
2019-03-19T00:32:12.766Z,7.40
2019-03-19T00:35:19.015Z,6.47
2019-03-19T00:38:25.510Z,8.13
2019-03-19T00:41:32.235Z,12.07
2019-03-19T00:44:39.149Z,7.03
2019-03-19T00:47:45.838Z,3.80
2019-03-19T00:50:52.458Z,6.47
2019-03-19T00:53:59.173Z,3.70
2019-03-19T00:57:05.893Z,7.70
2019-03-19T01:00:12.915Z,2.83
2019-03-19T01:03:19.341Z,2.77
2019-03-19T01:06:25.765Z,7.07
2019-03-19T01:09:33.069Z,5.47
2019-03-19T01:12:39.981Z,2.33
2019-03-19T01:15:46.442Z,5.77
2019-03-19T01:18:53.067Z,6.13
2019-03-19T01:21:59.678Z,8.93
2019-03-19T01:25:07.231Z,5.63
2019-03-19T01:28:13.723Z,8.27
2019-03-19T01:31:21.139Z,4.97
2019-03-19T01:34:27.500Z,1.63
2019-03-19T01:37:33.838Z,3.57
2019-03-19T01:40:40.270Z,3.33
2019-03-19T01:43:46.686Z,6.07
2019-03-19T01:46:53.244Z,4.90
2019-03-19T01:50:00.337Z,3.97
2019-03-19T01:53:06.702Z,4.63
2019-03-19T01:56:13.871Z,8.43
2019-03-19T01:59:20.363Z,3.33
2019-03-19T02:02:26.853Z,7.53
2019-03-19T02:05:33.409Z,6.47
2019-03-19T02:08:40.062Z,2.20
2019-03-19T02:11:46.667Z,7.23
2019-03-19T02:14:53.073Z,6.17
2019-03-19T02:17:59.677Z,6.17
2019-03-19T02:21:06.385Z,4.53
2019-03-19T02:24:13.173Z,10.50
2019-03-19T02:27:19.647Z,7.40
2019-03-19T02:30:26.272Z,4.37
2019-03-19T02:33:33.036Z,2.20
2019-03-19T02:36:39.245Z,5.47
2019-03-19T02:39:45.841Z,2.20
2019-03-19T02:42:52.464Z,3.53
2019-03-19T02:45:59.380Z,4.77
2019-03-19T02:49:06.122Z,3.93
2019-03-19T02:52:12.770Z,7.13
2019-03-19T02:55:19.277Z,5.27
2019-03-19T02:58:26.234Z,4.87
2019-03-19T03:01:32.977Z,13.17
2019-03-19T03:04:39.683Z,5.23
2019-03-19T03:07:46.110Z,6.13
2019-03-19T03:10:52.371Z,10.77
2019-03-19T03:13:58.841Z,11.07
2019-03-19T03:17:05.542Z,8.70
2019-03-19T03:20:12.434Z,12.77
2019-03-19T03:23:19.474Z,7.00
2019-03-19T03:26:25.653Z,6.47
2019-03-19T03:29:32.243Z,7.30
2019-03-19T03:32:38.518Z,6.57
2019-03-19T03:35:44.954Z,7.67
2019-03-19T03:38:51.530Z,2.37
2019-03-19T03:41:57.984Z,4.77
2019-03-19T03:45:04.666Z,18.47
2019-03-19T03:48:11.201Z,8.80
2019-03-19T03:51:18.238Z,4.37
2019-03-19T03:54:24.877Z,4.00
2019-03-19T03:57:31.580Z,11.43
2019-03-19T04:00:38.535Z,5.73
2019-03-19T04:03:45.520Z,7.73
2019-03-19T04:06:52.540Z,11.07
2019-03-19T04:09:59.029Z,5.20
2019-03-19T04:13:05.979Z,5.97
2019-03-19T04:16:12.574Z,13.27
2019-03-19T04:19:19.321Z,8.10
2019-03-19T04:22:26.003Z,17.47
2019-03-19T04:25:32.663Z,7.63
2019-03-19T04:28:39.531Z,6.67
2019-03-19T04:31:45.975Z,6.60
2019-03-19T04:34:52.629Z,5.90
2019-03-19T04:37:59.095Z,8.37
2019-03-19T04:41:06.102Z,6.20
2019-03-19T04:44:12.841Z,9.53
2019-03-19T04:47:20.537Z,6.07
2019-03-19T04:50:27.552Z,5.87
2019-03-19T04:53:33.919Z,8.33
2019-03-19T04:56:40.359Z,8.23
2019-03-19T04:59:47.251Z,5.60
2019-03-19T05:02:53.737Z,13.13
2019-03-19T05:06:00.553Z,11.40
2019-03-19T05:09:08.312Z,7.43
2019-03-19T05:12:15.161Z,6.70
2019-03-19T05:15:22.109Z,11.47
2019-03-19T05:18:31.281Z,6.83
2019-03-19T05:21:37.943Z,7.90
2019-03-19T05:24:45.142Z,5.70
2019-03-19T05:27:51.766Z,4.03
2019-03-19T05:30:59.018Z,9.10
2019-03-19T05:34:06.178Z,11.00
2019-03-19T05:37:12.802Z,7.00
2019-03-19T05:40:20.015Z,7.73
2019-03-19T05:43:27.319Z,5.67
2019-03-19T05:46:34.459Z,17.87
2019-03-19T05:49:40.983Z,10.97
2019-03-19T05:52:48.714Z,6.07
2019-03-19T05:55:55.576Z,9.73
2019-03-19T05:59:02.690Z,9.77
2019-03-19T06:02:09.244Z,9.53
2019-03-19T06:05:15.685Z,17.33
2019-03-19T06:08:22.144Z,7.60
2019-03-19T06:11:28.571Z,10.40
2019-03-19T06:14:38.466Z,8.40
2019-03-19T06:17:45.010Z,6.00
2019-03-19T06:20:51.629Z,3.60
2019-03-19T06:23:57.785Z,7.80
2019-03-19T06:27:03.977Z,3.33
2019-03-19T06:30:13.238Z,15.70
2019-03-19T06:33:19.738Z,11.10
2019-03-19T06:36:26.681Z,5.63
2019-03-19T06:39:33.227Z,10.97
2019-03-19T06:42:42.663Z,7.73
2019-03-19T06:45:50.052Z,6.47
2019-03-19T06:48:56.803Z,8.33
2019-03-19T06:52:03.432Z,8.60
2019-03-19T06:55:11.412Z,10.10
2019-03-19T06:58:17.994Z,6.63
2019-03-19T07:01:24.838Z,18.70
2019-03-19T07:04:31.747Z,5.70
2019-03-19T07:07:38.462Z,10.43
2019-03-19T07:10:45.042Z,6.70
2019-03-19T07:13:52.173Z,12.50
2019-03-19T07:16:58.763Z,16.30
2019-03-19T07:20:05.798Z,28.00
2019-03-19T07:23:12.085Z,13.33
2019-03-19T07:26:18.648Z,10.20
2019-03-19T07:29:25.275Z,7.03
2019-03-19T07:32:31.772Z,10.13
2019-03-19T07:35:38.252Z,4.40
2019-03-19T07:38:44.586Z,12.70
2019-03-19T07:41:51.852Z,10.60
2019-03-19T07:44:59.033Z,29.53
2019-03-19T07:48:05.735Z,10.60
2019-03-19T07:51:12.540Z,14.20
2019-03-19T07:54:19.629Z,9.80
2019-03-19T07:57:26.029Z,4.97
2019-03-19T08:00:32.455Z,7.27
2019-03-19T08:03:39.184Z,12.63
2019-03-19T08:06:46.049Z,13.53
2019-03-19T08:09:52.606Z,14.53
2019-03-19T08:12:59.567Z,5.47
2019-03-19T08:16:06.139Z,10.03
2019-03-19T08:19:13.181Z,8.63
2019-03-19T08:22:19.741Z,12.47
2019-03-19T08:25:27.112Z,12.87
2019-03-19T08:28:33.916Z,15.10
2019-03-19T08:31:40.629Z,8.47
2019-03-19T08:34:47.376Z,7.10
2019-03-19T08:37:54.065Z,6.30
2019-03-19T08:41:02.275Z,5.40
2019-03-19T08:44:09.210Z,11.80
2019-03-19T08:47:15.951Z,4.00
2019-03-19T08:50:22.368Z,5.90
2019-03-19T08:53:28.933Z,12.23
2019-03-19T08:56:35.990Z,8.70
2019-03-19T08:59:42.848Z,6.10
2019-03-19T09:02:52.434Z,4.00
2019-03-19T09:05:59.341Z,12.30
2019-03-19T09:09:08.837Z,11.97
2019-03-19T09:12:15.384Z,11.53
2019-03-19T09:15:21.880Z,10.10
2019-03-19T09:18:28.485Z,7.07
2019-03-19T09:21:35.653Z,8.67
2019-03-19T09:24:42.419Z,17.77
2019-03-19T09:27:49.239Z,9.87
2019-03-19T09:30:56.013Z,5.67
2019-03-19T09:34:03.009Z,7.27
2019-03-19T09:37:09.627Z,5.67
2019-03-19T09:40:16.280Z,9.77
2019-03-19T09:43:22.805Z,24.43
2019-03-19T09:46:30.567Z,7.07
2019-03-19T09:49:37.186Z,8.73
2019-03-19T09:52:43.769Z,10.33
2019-03-19T09:55:50.439Z,7.63
2019-03-19T09:58:56.760Z,12.57
2019-03-19T10:02:03.444Z,7.50
2019-03-19T10:05:09.829Z,4.57
2019-03-19T10:08:16.538Z,9.87
2019-03-19T10:11:23.087Z,6.50
2019-03-19T10:14:30.049Z,3.67
2019-03-19T10:17:36.510Z,6.23
2019-03-19T10:20:43.230Z,6.60
2019-03-19T10:23:49.500Z,10.70
2019-03-19T10:26:55.982Z,7.37
2019-03-19T10:30:02.416Z,11.53
2019-03-19T10:33:11.288Z,12.20
2019-03-19T10:36:18.551Z,7.00
2019-03-19T10:39:24.881Z,12.80
2019-03-19T10:42:31.259Z,5.30
2019-03-19T10:45:39.828Z,3.13
2019-03-19T10:48:46.286Z,2.63
2019-03-19T10:51:52.707Z,6.33
2019-03-19T10:54:59.234Z,4.03
2019-03-19T10:58:10.846Z,5.80
2019-03-19T11:01:14.495Z,9.03
2019-03-19T11:04:20.988Z,8.13
2019-03-19T11:07:27.581Z,4.93
2019-03-19T11:10:33.911Z,11.10
2019-03-19T11:13:40.767Z,5.70
2019-03-19T11:16:47.480Z,5.07
2019-03-19T11:19:53.797Z,3.77
2019-03-19T11:23:00.707Z,0.57
2019-03-19T11:26:07.654Z,3.03
2019-03-19T11:29:13.851Z,4.50
2019-03-19T11:32:20.554Z,5.30
2019-03-19T11:35:27.461Z,4.23
2019-03-19T11:38:34.204Z,5.90
2019-03-19T11:41:41.225Z,9.33
2019-03-19T11:44:48.338Z,1.47
2019-03-19T11:47:54.874Z,3.50
2019-03-19T11:51:01.575Z,9.13
2019-03-19T11:54:08.399Z,1.90
2019-03-19T11:57:15.061Z,4.93
2019-03-19T12:00:41.811Z,8.13
2019-03-19T12:03:48.338Z,3.43
2019-03-19T12:06:55.310Z,3.60
2019-03-19T12:10:03.234Z,4.83
2019-03-19T12:13:10.338Z,4.60
2019-03-19T12:16:16.978Z,6.57
2019-03-19T12:19:23.437Z,5.83
2019-03-19T12:22:33.169Z,4.00
2019-03-19T12:25:39.629Z,4.00
2019-03-19T12:28:46.463Z,7.47
2019-03-19T12:31:53.384Z,2.80
2019-03-19T12:35:01.579Z,9.23
2019-03-19T12:38:09.115Z,2.27
2019-03-19T12:41:16.204Z,3.90
2019-03-19T12:44:22.892Z,5.40
2019-03-19T12:47:30.230Z,2.70
2019-03-19T12:50:36.952Z,7.10
2019-03-19T12:53:43.697Z,2.83
2019-03-19T12:56:50.739Z,2.93
2019-03-19T12:59:57.739Z,3.50
2019-03-19T13:03:04.537Z,4.63
2019-03-19T13:06:11.377Z,4.17
2019-03-19T13:09:18.186Z,1.33
2019-03-19T13:12:25.084Z,6.10
2019-03-19T13:15:31.973Z,2.50
2019-03-19T13:18:38.909Z,4.83
2019-03-19T13:21:45.298Z,4.33
2019-03-19T13:24:51.995Z,7.50
2019-03-19T13:27:58.449Z,16.83
2019-03-19T13:31:05.045Z,5.57
2019-03-19T13:34:11.590Z,8.40
2019-03-19T13:37:17.998Z,4.70
2019-03-19T13:40:24.982Z,4.77
2019-03-19T13:43:32.045Z,5.70
2019-03-19T13:46:41.128Z,4.67
2019-03-19T13:49:48.061Z,8.80
2019-03-19T13:52:55.042Z,6.03
2019-03-19T13:56:01.555Z,3.27
2019-03-19T13:59:08.092Z,5.77
2019-03-19T14:02:14.618Z,6.93
2019-03-19T14:05:21.371Z,5.30
2019-03-19T14:08:28.425Z,4.47
2019-03-19T14:11:35.900Z,5.60
2019-03-19T14:14:42.343Z,2.17
2019-03-19T14:17:48.932Z,1.20
2019-03-19T14:20:56.494Z,5.07
2019-03-19T14:24:03.476Z,4.03
2019-03-19T14:27:10.302Z,4.40
2019-03-19T14:30:17.494Z,2.97
2019-03-19T14:33:24.354Z,9.73
2019-03-19T14:36:31.039Z,10.70
2019-03-19T14:39:37.900Z,6.03
2019-03-19T14:42:44.562Z,2.47
2019-03-19T14:45:51.121Z,5.50
2019-03-19T14:48:58.336Z,4.53
2019-03-19T14:52:05.129Z,5.47
2019-03-19T14:55:12.510Z,10.63
2019-03-19T14:58:18.885Z,5.37
2019-03-19T15:01:26.314Z,4.90
2019-03-19T15:04:33.439Z,6.80
2019-03-19T15:07:40.535Z,7.00
2019-03-19T15:10:48.265Z,5.50
2019-03-19T15:13:55.342Z,6.47
2019-03-19T15:17:05.062Z,6.67
2019-03-19T15:20:12.722Z,6.13
2019-03-19T15:23:20.520Z,4.60
2019-03-19T15:26:27.527Z,5.27
2019-03-19T15:29:35.066Z,2.57
2019-03-19T15:32:42.339Z,3.60
2019-03-19T15:35:49.729Z,6.27
2019-03-19T15:38:56.510Z,2.80
2019-03-19T15:42:03.272Z,2.27
2019-03-19T15:45:10.828Z,3.90
2019-03-19T15:48:18.822Z,3.53
2019-03-19T15:51:25.559Z,9.17
2019-03-19T15:54:35.619Z,4.40
2019-03-19T15:57:42.449Z,6.50
2019-03-19T16:00:49.556Z,4.43
2019-03-19T16:03:56.069Z,2.37
2019-03-19T16:07:02.628Z,12.20
2019-03-19T16:10:09.740Z,2.23
2019-03-19T16:13:16.510Z,2.63
2019-03-19T16:16:23.162Z,9.80
2019-03-19T16:19:31.314Z,4.27
2019-03-19T16:22:38.200Z,6.60
2019-03-19T16:25:45.914Z,5.80
2019-03-19T16:28:52.564Z,10.60
2019-03-19T16:31:58.833Z,10.40
2019-03-19T16:35:05.880Z,4.73
2019-03-19T16:38:12.247Z,7.70
2019-03-19T16:41:18.830Z,3.60
2019-03-19T16:44:25.249Z,3.60
2019-03-19T16:47:32.128Z,1.30
2019-03-19T16:50:39.051Z,3.63
2019-03-19T16:53:45.529Z,5.87
2019-03-19T16:56:52.840Z,4.43
2019-03-19T16:59:59.565Z,6.53
2019-03-19T17:03:06.315Z,5.93
2019-03-19T17:06:12.719Z,5.43
2019-03-19T17:09:19.695Z,6.73
2019-03-19T17:12:26.618Z,4.53
2019-03-19T17:15:33.469Z,6.30
2019-03-19T17:18:40.594Z,8.43
2019-03-19T17:21:50.610Z,4.77
2019-03-19T17:25:00.303Z,3.70
2019-03-19T17:28:10.749Z,2.67
2019-03-19T17:31:17.985Z,11.03
2019-03-19T17:34:27.340Z,1.33
2019-03-19T17:37:36.581Z,4.03
2019-03-19T17:40:46.845Z,6.70
2019-03-19T17:43:53.682Z,15.43
2019-03-19T17:47:02.930Z,10.73
2019-03-19T17:50:12.329Z,17.80
2019-03-19T17:53:19.084Z,12.20
2019-03-19T17:56:26.249Z,30.13
2019-03-19T17:59:35.423Z,20.67
2019-03-19T18:02:42.734Z,14.27
2019-03-19T18:05:49.461Z,18.40
2019-03-19T18:08:57.419Z,13.30
2019-03-19T18:12:04.045Z,22.20
2019-03-19T18:15:15.730Z,15.20
2019-03-19T18:18:23.889Z,15.13
2019-03-19T18:21:32.967Z,12.93
2019-03-19T18:24:40.149Z,9.83
2019-03-19T18:27:49.149Z,8.57
2019-03-19T18:30:57.221Z,45.23
2019-03-19T18:34:10.262Z,49.73
2019-03-19T18:37:12.760Z,35.70
2019-03-19T18:40:20.586Z,19.13
2019-03-19T18:43:27.978Z,14.83
2019-03-19T18:46:35.866Z,14.27
2019-03-19T18:49:43.067Z,14.43
2019-03-19T18:52:50.064Z,25.00
2019-03-19T18:55:57.180Z,19.50
2019-03-19T18:59:03.760Z,18.03
2019-03-19T19:02:10.546Z,10.30
2019-03-19T19:05:17.352Z,6.87
2019-03-19T19:08:24.596Z,8.90
2019-03-19T19:11:31.674Z,10.90
2019-03-19T19:14:41.870Z,8.17
2019-03-19T19:17:52.225Z,7.63
2019-03-19T19:20:59.749Z,3.30
2019-03-19T19:24:08.790Z,5.23
2019-03-19T19:27:16.162Z,6.17
2019-03-19T19:30:24.293Z,15.87
2019-03-19T19:33:30.954Z,21.80
2019-03-19T19:36:38.276Z,35.60
2019-03-19T19:39:45.075Z,50.00
2019-03-19T19:42:51.577Z,39.03
2019-03-19T19:45:59.099Z,24.50
2019-03-19T19:49:06.385Z,13.70
2019-03-19T19:52:13.502Z,14.90
2019-03-19T19:55:20.888Z,19.97
2019-03-19T19:58:29.625Z,15.00
2019-03-19T20:01:38.979Z,27.30
2019-03-19T20:04:45.793Z,17.77
2019-03-19T20:07:53.287Z,11.03
2019-03-19T20:11:00.138Z,13.03
2019-03-19T20:14:07.392Z,16.90
2019-03-19T20:17:14.646Z,5.70
2019-03-19T20:20:21.619Z,6.93
2019-03-19T20:23:28.396Z,21.17
2019-03-19T20:26:36.049Z,8.40
2019-03-19T20:29:42.646Z,11.60
2019-03-19T20:32:49.113Z,12.73
2019-03-19T20:35:56.789Z,10.47
2019-03-19T20:39:04.178Z,15.17
2019-03-19T20:42:11.416Z,4.80
2019-03-19T20:45:18.907Z,9.47
2019-03-19T20:48:25.931Z,72.17
2019-03-19T20:51:34.315Z,91.60
2019-03-19T20:54:40.808Z,43.47
2019-03-19T20:57:47.546Z,30.10
2019-03-19T21:00:54.372Z,34.53
2019-03-19T21:04:01.369Z,25.23
2019-03-19T21:07:07.695Z,45.47
2019-03-19T21:10:16.365Z,32.00
2019-03-19T21:13:23.686Z,26.43
2019-03-19T21:16:30.273Z,26.00
2019-03-19T21:19:37.542Z,46.53
2019-03-19T21:22:44.049Z,33.97
2019-03-19T21:25:50.779Z,25.33
2019-03-19T21:28:58.345Z,16.23
2019-03-19T21:32:04.907Z,11.30
2019-03-19T21:35:11.687Z,12.83
2019-03-19T21:38:18.830Z,10.97
2019-03-19T21:41:25.516Z,7.03
2019-03-19T21:44:32.357Z,4.87
2019-03-19T21:47:38.766Z,5.13
2019-03-19T21:50:45.954Z,9.20
2019-03-19T21:53:52.489Z,11.63
2019-03-19T21:56:59.409Z,4.63
2019-03-19T22:00:09.813Z,2.57
2019-03-19T22:03:16.021Z,7.37
2019-03-19T22:06:22.527Z,4.27
2019-03-19T22:09:30.697Z,3.73
2019-03-19T22:12:40.586Z,9.20
2019-03-19T22:15:46.916Z,9.13
2019-03-19T22:18:53.974Z,12.83
2019-03-19T22:22:00.752Z,21.97
2019-03-19T22:25:08.023Z,26.20
2019-03-19T22:28:14.742Z,15.23
2019-03-19T22:31:21.674Z,51.10
2019-03-19T22:34:28.063Z,49.90
2019-03-19T22:37:34.700Z,40.30
2019-03-19T22:40:41.827Z,37.30
2019-03-19T22:43:48.699Z,56.80
2019-03-19T22:46:55.183Z,85.13
2019-03-19T22:50:02.139Z,73.63
2019-03-19T22:53:09.154Z,61.07
2019-03-19T22:56:15.674Z,52.93
2019-03-19T22:59:22.519Z,52.40
2019-03-19T23:02:29.287Z,69.30
2019-03-19T23:05:36.151Z,55.60
2019-03-19T23:08:42.819Z,32.77
2019-03-19T23:11:49.529Z,33.57
2019-03-19T23:14:56.407Z,35.40
2019-03-19T23:18:03.098Z,38.03
2019-03-19T23:21:10.029Z,33.73
2019-03-19T23:24:16.547Z,25.40
2019-03-19T23:27:23.554Z,21.30
2019-03-19T23:30:30.197Z,35.17
2019-03-19T23:33:36.652Z,42.57
2019-03-19T23:36:42.897Z,33.07
2019-03-19T23:39:49.267Z,23.43
2019-03-19T23:42:55.606Z,20.83
2019-03-19T23:46:01.795Z,16.63
2019-03-19T23:49:09.866Z,11.30
2019-03-19T23:52:16.353Z,15.00
2019-03-19T23:55:22.718Z,16.00
2019-03-19T23:58:28.945Z,9.60
